createdAt,value
2023-02-18T00:01:26.218Z,0.70
2023-02-18T00:31:29.351Z,1.13
2023-02-18T01:01:33.644Z,1.67
2023-02-18T01:31:36.577Z,0.93
2023-02-18T02:01:41.372Z,1.30
2023-02-18T02:31:44.282Z,1.53
2023-02-18T03:01:48.684Z,1.50
2023-02-18T03:31:51.619Z,1.23
2023-02-18T04:01:55.412Z,1.40
2023-02-18T04:31:58.206Z,1.30
2023-02-18T05:02:02.197Z,1.80
2023-02-18T05:32:05.082Z,1.10
2023-02-18T06:02:08.717Z,1.70
2023-02-18T06:32:12.536Z,1.40
2023-02-18T07:02:17.871Z,2.10
2023-02-18T07:32:20.640Z,1.30
2023-02-18T08:02:26.067Z,1.60
2023-02-18T08:32:28.934Z,2.40
2023-02-18T09:02:32.967Z,1.40
2023-02-18T09:32:35.907Z,0.83
2023-02-18T10:02:40.262Z,1.27
2023-02-18T10:32:43.238Z,0.50
2023-02-18T11:02:47.871Z,0.93
2023-02-18T11:32:50.718Z,0.80
2023-02-18T12:02:54.351Z,0.67
2023-02-18T12:32:57.346Z,1.00
2023-02-18T13:03:02.057Z,1.10
2023-02-18T13:33:05.094Z,1.00
2023-02-18T14:03:10.160Z,0.70
2023-02-18T14:33:13.165Z,0.90
2023-02-18T15:03:17.350Z,1.20
2023-02-18T15:33:20.476Z,1.83
2023-02-18T16:03:25.432Z,3.10
2023-02-18T16:33:28.384Z,5.67
2023-02-18T17:03:33.678Z,4.30
2023-02-18T17:33:36.657Z,5.10
2023-02-18T18:03:44.470Z,4.17
2023-02-18T18:33:47.381Z,5.77
2023-02-18T19:03:51.733Z,4.63
2023-02-18T19:33:54.623Z,4.93
2023-02-18T20:03:59.509Z,3.90
2023-02-18T20:34:03.565Z,3.30
2023-02-18T21:04:09.836Z,5.90
2023-02-18T21:34:14.394Z,4.50
2023-02-18T22:04:19.525Z,4.97
2023-02-18T22:34:23.528Z,5.20
2023-02-18T23:04:26.631Z,7.13
2023-02-18T23:34:30.288Z,8.27
